sensor_id;sensor_type;location;lat;lon;timestamp;temperature;humidity
47618;DHT22;33336;36.728;-4.414;2023-02-11T00:04:08;12.90;90.30
47618;DHT22;33336;36.728;-4.414;2023-02-11T00:09:11;12.90;90.80
47618;DHT22;33336;36.728;-4.414;2023-02-11T00:14:15;13.00;90.70
47618;DHT22;33336;36.728;-4.414;2023-02-11T00:19:20;13.10;90.30
47618;DHT22;33336;36.728;-4.414;2023-02-11T00:24:24;13.00;89.00
47618;DHT22;33336;36.728;-4.414;2023-02-11T00:29:28;12.90;88.80
47618;DHT22;33336;36.728;-4.414;2023-02-11T00:34:32;13.00;88.90
47618;DHT22;33336;36.728;-4.414;2023-02-11T00:39:36;12.90;87.10
47618;DHT22;33336;36.728;-4.414;2023-02-11T00:44:41;13.00;87.10
47618;DHT22;33336;36.728;-4.414;2023-02-11T00:49:44;13.00;88.20
47618;DHT22;33336;36.728;-4.414;2023-02-11T00:54:48;13.00;88.20
47618;DHT22;33336;36.728;-4.414;2023-02-11T00:59:52;13.10;88.90
47618;DHT22;33336;36.728;-4.414;2023-02-11T01:04:55;13.00;87.70
47618;DHT22;33336;36.728;-4.414;2023-02-11T01:09:59;12.90;87.80
47618;DHT22;33336;36.728;-4.414;2023-02-11T01:15:07;13.00;87.60
47618;DHT22;33336;36.728;-4.414;2023-02-11T01:20:15;13.10;87.50
47618;DHT22;33336;36.728;-4.414;2023-02-11T01:25:19;13.10;88.70
47618;DHT22;33336;36.728;-4.414;2023-02-11T01:30:23;13.00;86.70
47618;DHT22;33336;36.728;-4.414;2023-02-11T01:35:27;13.00;86.10
47618;DHT22;33336;36.728;-4.414;2023-02-11T01:40:30;13.20;86.50
47618;DHT22;33336;36.728;-4.414;2023-02-11T01:51:19;13.20;87.10
47618;DHT22;33336;36.728;-4.414;2023-02-11T01:56:25;13.20;87.60
47618;DHT22;33336;36.728;-4.414;2023-02-11T02:01:51;13.20;88.70
47618;DHT22;33336;36.728;-4.414;2023-02-11T02:06:58;13.20;91.00
47618;DHT22;33336;36.728;-4.414;2023-02-11T02:12:04;13.10;91.90
47618;DHT22;33336;36.728;-4.414;2023-02-11T02:17:27;13.20;92.10
47618;DHT22;33336;36.728;-4.414;2023-02-11T02:22:57;13.10;92.20
47618;DHT22;33336;36.728;-4.414;2023-02-11T02:28:17;13.10;91.70
47618;DHT22;33336;36.728;-4.414;2023-02-11T02:33:45;13.10;91.80
47618;DHT22;33336;36.728;-4.414;2023-02-11T02:38:57;13.10;92.40
47618;DHT22;33336;36.728;-4.414;2023-02-11T02:44:01;13.10;92.40
47618;DHT22;33336;36.728;-4.414;2023-02-11T02:49:12;13.00;91.90
47618;DHT22;33336;36.728;-4.414;2023-02-11T02:54:35;13.20;92.40
47618;DHT22;33336;36.728;-4.414;2023-02-11T02:59:53;13.20;92.30
47618;DHT22;33336;36.728;-4.414;2023-02-11T03:05:02;13.20;91.90
47618;DHT22;33336;36.728;-4.414;2023-02-11T03:10:11;13.30;92.40
47618;DHT22;33336;36.728;-4.414;2023-02-11T03:15:16;13.30;92.90
47618;DHT22;33336;36.728;-4.414;2023-02-11T03:20:23;13.20;90.60
47618;DHT22;33336;36.728;-4.414;2023-02-11T03:25:30;13.10;91.00
47618;DHT22;33336;36.728;-4.414;2023-02-11T03:30:40;13.20;91.10
47618;DHT22;33336;36.728;-4.414;2023-02-11T03:35:51;13.20;89.50
47618;DHT22;33336;36.728;-4.414;2023-02-11T03:40:57;13.10;89.20
47618;DHT22;33336;36.728;-4.414;2023-02-11T03:46:02;13.10;90.40
47618;DHT22;33336;36.728;-4.414;2023-02-11T03:51:09;13.10;90.40
47618;DHT22;33336;36.728;-4.414;2023-02-11T03:56:16;13.10;90.10
47618;DHT22;33336;36.728;-4.414;2023-02-11T04:01:20;13.10;90.60
47618;DHT22;33336;36.728;-4.414;2023-02-11T04:06:24;13.00;90.10
47618;DHT22;33336;36.728;-4.414;2023-02-11T04:11:28;13.00;90.40
47618;DHT22;33336;36.728;-4.414;2023-02-11T04:16:30;13.20;91.10
47618;DHT22;33336;36.728;-4.414;2023-02-11T04:21:35;13.20;91.10
47618;DHT22;33336;36.728;-4.414;2023-02-11T04:26:38;13.10;91.40
47618;DHT22;33336;36.728;-4.414;2023-02-11T04:31:42;13.00;91.20
47618;DHT22;33336;36.728;-4.414;2023-02-11T04:36:46;13.10;92.10
47618;DHT22;33336;36.728;-4.414;2023-02-11T04:41:50;13.10;91.00
47618;DHT22;33336;36.728;-4.414;2023-02-11T04:46:52;13.10;90.00
47618;DHT22;33336;36.728;-4.414;2023-02-11T04:51:57;13.20;90.30
47618;DHT22;33336;36.728;-4.414;2023-02-11T04:57:00;13.20;88.00
47618;DHT22;33336;36.728;-4.414;2023-02-11T05:02:04;13.10;90.10
47618;DHT22;33336;36.728;-4.414;2023-02-11T05:07:08;13.10;88.90
47618;DHT22;33336;36.728;-4.414;2023-02-11T05:12:12;13.20;88.60
47618;DHT22;33336;36.728;-4.414;2023-02-11T05:17:14;13.20;90.10
47618;DHT22;33336;36.728;-4.414;2023-02-11T05:22:19;13.20;90.00
47618;DHT22;33336;36.728;-4.414;2023-02-11T05:27:22;13.30;90.60
47618;DHT22;33336;36.728;-4.414;2023-02-11T05:32:26;13.20;90.70
47618;DHT22;33336;36.728;-4.414;2023-02-11T05:37:30;13.20;90.90
47618;DHT22;33336;36.728;-4.414;2023-02-11T05:42:34;13.30;91.30
47618;DHT22;33336;36.728;-4.414;2023-02-11T05:47:37;13.30;91.90
47618;DHT22;33336;36.728;-4.414;2023-02-11T05:52:41;13.30;91.50
47618;DHT22;33336;36.728;-4.414;2023-02-11T05:57:44;13.30;92.50
47618;DHT22;33336;36.728;-4.414;2023-02-11T06:02:47;13.30;92.20
47618;DHT22;33336;36.728;-4.414;2023-02-11T06:07:51;13.30;92.10
47618;DHT22;33336;36.728;-4.414;2023-02-11T06:12:55;13.20;91.60
47618;DHT22;33336;36.728;-4.414;2023-02-11T06:17:57;13.20;91.00
47618;DHT22;33336;36.728;-4.414;2023-02-11T06:23:02;13.20;91.90
47618;DHT22;33336;36.728;-4.414;2023-02-11T06:28:05;13.20;92.50
47618;DHT22;33336;36.728;-4.414;2023-02-11T06:33:09;13.20;92.50
47618;DHT22;33336;36.728;-4.414;2023-02-11T06:38:13;13.20;91.00
47618;DHT22;33336;36.728;-4.414;2023-02-11T06:43:16;13.20;92.40
47618;DHT22;33336;36.728;-4.414;2023-02-11T06:48:19;13.20;93.00
47618;DHT22;33336;36.728;-4.414;2023-02-11T06:53:24;13.20;92.80
47618;DHT22;33336;36.728;-4.414;2023-02-11T06:58:27;13.20;94.20
47618;DHT22;33336;36.728;-4.414;2023-02-11T07:03:31;13.30;93.10
47618;DHT22;33336;36.728;-4.414;2023-02-11T07:08:37;13.20;93.70
47618;DHT22;33336;36.728;-4.414;2023-02-11T07:13:41;13.30;94.30
47618;DHT22;33336;36.728;-4.414;2023-02-11T07:18:45;13.30;94.10
47618;DHT22;33336;36.728;-4.414;2023-02-11T07:23:50;13.30;94.00
47618;DHT22;33336;36.728;-4.414;2023-02-11T07:28:53;13.20;93.60
47618;DHT22;33336;36.728;-4.414;2023-02-11T07:33:58;13.20;94.10
47618;DHT22;33336;36.728;-4.414;2023-02-11T07:39:03;13.30;94.60
47618;DHT22;33336;36.728;-4.414;2023-02-11T07:44:07;13.30;94.90
47618;DHT22;33336;36.728;-4.414;2023-02-11T07:49:10;13.40;95.00
47618;DHT22;33336;36.728;-4.414;2023-02-11T07:54:15;13.40;95.30
47618;DHT22;33336;36.728;-4.414;2023-02-11T07:59:18;13.40;93.20
47618;DHT22;33336;36.728;-4.414;2023-02-11T08:04:22;13.30;92.30
47618;DHT22;33336;36.728;-4.414;2023-02-11T08:09:26;13.40;93.30
47618;DHT22;33336;36.728;-4.414;2023-02-11T08:14:29;13.30;92.40
47618;DHT22;33336;36.728;-4.414;2023-02-11T08:19:33;13.50;93.30
47618;DHT22;33336;36.728;-4.414;2023-02-11T08:24:38;13.40;92.20
47618;DHT22;33336;36.728;-4.414;2023-02-11T08:29:41;13.40;92.70
47618;DHT22;33336;36.728;-4.414;2023-02-11T08:34:45;13.50;92.80
47618;DHT22;33336;36.728;-4.414;2023-02-11T08:39:49;13.60;92.70
47618;DHT22;33336;36.728;-4.414;2023-02-11T08:44:52;13.70;93.10
47618;DHT22;33336;36.728;-4.414;2023-02-11T08:49:55;13.90;93.60
47618;DHT22;33336;36.728;-4.414;2023-02-11T08:55:00;13.80;92.30
47618;DHT22;33336;36.728;-4.414;2023-02-11T09:00:03;13.90;91.90
47618;DHT22;33336;36.728;-4.414;2023-02-11T09:05:07;14.00;92.40
47618;DHT22;33336;36.728;-4.414;2023-02-11T09:10:11;14.10;91.70
47618;DHT22;33336;36.728;-4.414;2023-02-11T09:15:14;14.10;91.60
47618;DHT22;33336;36.728;-4.414;2023-02-11T09:20:17;14.20;91.30
47618;DHT22;33336;36.728;-4.414;2023-02-11T09:25:23;14.30;90.70
47618;DHT22;33336;36.728;-4.414;2023-02-11T09:30:26;14.30;90.70
47618;DHT22;33336;36.728;-4.414;2023-02-11T09:35:30;14.30;91.70
47618;DHT22;33336;36.728;-4.414;2023-02-11T09:40:34;14.30;91.00
47618;DHT22;33336;36.728;-4.414;2023-02-11T09:45:37;14.30;91.40
47618;DHT22;33336;36.728;-4.414;2023-02-11T09:50:42;14.50;90.90
47618;DHT22;33336;36.728;-4.414;2023-02-11T09:55:51;14.40;90.40
47618;DHT22;33336;36.728;-4.414;2023-02-11T10:01:03;14.50;90.50
47618;DHT22;33336;36.728;-4.414;2023-02-11T10:06:25;14.50;90.10
47618;DHT22;33336;36.728;-4.414;2023-02-11T10:11:39;14.60;87.70
47618;DHT22;33336;36.728;-4.414;2023-02-11T10:16:54;14.70;90.50
47618;DHT22;33336;36.728;-4.414;2023-02-11T10:22:08;14.80;89.50
47618;DHT22;33336;36.728;-4.414;2023-02-11T10:27:18;14.80;87.20
47618;DHT22;33336;36.728;-4.414;2023-02-11T10:32:29;15.00;88.10
47618;DHT22;33336;36.728;-4.414;2023-02-11T10:37:33;15.20;88.90
47618;DHT22;33336;36.728;-4.414;2023-02-11T10:42:38;15.20;87.90
47618;DHT22;33336;36.728;-4.414;2023-02-11T10:47:43;15.30;89.50
47618;DHT22;33336;36.728;-4.414;2023-02-11T10:52:47;15.50;87.20
47618;DHT22;33336;36.728;-4.414;2023-02-11T10:57:55;15.70;89.50
47618;DHT22;33336;36.728;-4.414;2023-02-11T11:03:01;15.70;88.30
47618;DHT22;33336;36.728;-4.414;2023-02-11T11:08:06;16.00;90.10
47618;DHT22;33336;36.728;-4.414;2023-02-11T11:13:27;15.90;87.00
47618;DHT22;33336;36.728;-4.414;2023-02-11T11:18:30;15.90;87.30
47618;DHT22;33336;36.728;-4.414;2023-02-11T11:23:35;16.10;89.10
47618;DHT22;33336;36.728;-4.414;2023-02-11T11:28:41;16.20;88.60
47618;DHT22;33336;36.728;-4.414;2023-02-11T11:33:53;16.30;89.80
47618;DHT22;33336;36.728;-4.414;2023-02-11T11:38:59;16.50;90.10
47618;DHT22;33336;36.728;-4.414;2023-02-11T11:44:23;16.50;89.50
47618;DHT22;33336;36.728;-4.414;2023-02-11T11:49:29;16.50;88.80
47618;DHT22;33336;36.728;-4.414;2023-02-11T11:54:36;16.50;89.20
47618;DHT22;33336;36.728;-4.414;2023-02-11T11:59:40;16.70;88.20
47618;DHT22;33336;36.728;-4.414;2023-02-11T12:05:00;16.70;88.00
47618;DHT22;33336;36.728;-4.414;2023-02-11T12:10:44;16.80;86.50
47618;DHT22;33336;36.728;-4.414;2023-02-11T12:15:57;16.90;88.20
47618;DHT22;33336;36.728;-4.414;2023-02-11T12:21:14;17.00;87.80
47618;DHT22;33336;36.728;-4.414;2023-02-11T12:26:23;17.00;88.80
47618;DHT22;33336;36.728;-4.414;2023-02-11T12:31:41;17.30;89.20
47618;DHT22;33336;36.728;-4.414;2023-02-11T12:36:56;17.60;88.40
47618;DHT22;33336;36.728;-4.414;2023-02-11T12:42:37;17.80;89.10
47618;DHT22;33336;36.728;-4.414;2023-02-11T12:48:12;17.60;86.30
47618;DHT22;33336;36.728;-4.414;2023-02-11T12:53:33;17.90;87.40
47618;DHT22;33336;36.728;-4.414;2023-02-11T12:58:40;18.10;87.70
47618;DHT22;33336;36.728;-4.414;2023-02-11T13:03:49;18.10;87.20
47618;DHT22;33336;36.728;-4.414;2023-02-11T13:09:00;18.10;87.40
47618;DHT22;33336;36.728;-4.414;2023-02-11T13:14:08;18.30;83.50
47618;DHT22;33336;36.728;-4.414;2023-02-11T13:19:21;18.30;85.00
47618;DHT22;33336;36.728;-4.414;2023-02-11T13:24:36;18.50;86.40
47618;DHT22;33336;36.728;-4.414;2023-02-11T13:30:12;18.60;85.60
47618;DHT22;33336;36.728;-4.414;2023-02-11T13:35:29;18.80;86.10
47618;DHT22;33336;36.728;-4.414;2023-02-11T13:40:34;19.00;84.30
47618;DHT22;33336;36.728;-4.414;2023-02-11T13:45:41;19.20;84.30
47618;DHT22;33336;36.728;-4.414;2023-02-11T13:50:49;19.30;84.20
47618;DHT22;33336;36.728;-4.414;2023-02-11T13:56:05;19.50;81.10
47618;DHT22;33336;36.728;-4.414;2023-02-11T14:01:08;19.70;79.60
47618;DHT22;33336;36.728;-4.414;2023-02-11T14:06:15;20.00;80.90
47618;DHT22;33336;36.728;-4.414;2023-02-11T14:11:45;19.80;78.30
47618;DHT22;33336;36.728;-4.414;2023-02-11T14:17:28;20.40;81.00
47618;DHT22;33336;36.728;-4.414;2023-02-11T14:22:45;20.70;78.70
47618;DHT22;33336;36.728;-4.414;2023-02-11T14:27:52;21.20;77.40
47618;DHT22;33336;36.728;-4.414;2023-02-11T14:33:18;21.30;75.80
47618;DHT22;33336;36.728;-4.414;2023-02-11T14:38:31;21.80;76.20
47618;DHT22;33336;36.728;-4.414;2023-02-11T14:43:44;23.00;76.50
47618;DHT22;33336;36.728;-4.414;2023-02-11T14:48:49;24.00;74.20
47618;DHT22;33336;36.728;-4.414;2023-02-11T14:53:57;25.20;73.20
47618;DHT22;33336;36.728;-4.414;2023-02-11T15:04:23;26.50;70.00
47618;DHT22;33336;36.728;-4.414;2023-02-11T15:09:30;27.20;68.20
47618;DHT22;33336;36.728;-4.414;2023-02-11T15:14:34;27.80;67.60
47618;DHT22;33336;36.728;-4.414;2023-02-11T15:19:39;28.60;68.10
47618;DHT22;33336;36.728;-4.414;2023-02-11T15:24:45;29.20;67.00
47618;DHT22;33336;36.728;-4.414;2023-02-11T15:29:58;29.60;68.20
47618;DHT22;33336;36.728;-4.414;2023-02-11T15:35:01;29.90;67.10
47618;DHT22;33336;36.728;-4.414;2023-02-11T15:40:11;29.90;65.00
47618;DHT22;33336;36.728;-4.414;2023-02-11T15:45:21;30.00;64.40
47618;DHT22;33336;36.728;-4.414;2023-02-11T15:50:30;30.30;64.60
47618;DHT22;33336;36.728;-4.414;2023-02-11T15:55:40;30.20;62.60
47618;DHT22;33336;36.728;-4.414;2023-02-11T16:00:46;31.00;64.30
47618;DHT22;33336;36.728;-4.414;2023-02-11T16:05:50;30.80;63.90
47618;DHT22;33336;36.728;-4.414;2023-02-11T16:10:56;30.60;61.90
47618;DHT22;33336;36.728;-4.414;2023-02-11T16:16:01;30.70;63.00
47618;DHT22;33336;36.728;-4.414;2023-02-11T16:21:12;30.70;62.00
47618;DHT22;33336;36.728;-4.414;2023-02-11T16:26:26;30.60;63.10
47618;DHT22;33336;36.728;-4.414;2023-02-11T16:31:32;30.30;63.10
47618;DHT22;33336;36.728;-4.414;2023-02-11T16:36:36;30.10;64.90
47618;DHT22;33336;36.728;-4.414;2023-02-11T16:41:41;29.80;64.50
47618;DHT22;33336;36.728;-4.414;2023-02-11T16:46:45;29.30;64.10
47618;DHT22;33336;36.728;-4.414;2023-02-11T16:51:49;29.10;64.50
47618;DHT22;33336;36.728;-4.414;2023-02-11T16:56:55;27.80;65.10
47618;DHT22;33336;36.728;-4.414;2023-02-11T17:01:58;28.00;64.70
47618;DHT22;33336;36.728;-4.414;2023-02-11T17:07:01;27.20;65.90
47618;DHT22;33336;36.728;-4.414;2023-02-11T17:12:06;26.80;66.20
47618;DHT22;33336;36.728;-4.414;2023-02-11T17:17:10;26.30;67.50
47618;DHT22;33336;36.728;-4.414;2023-02-11T17:22:13;25.60;68.00
47618;DHT22;33336;36.728;-4.414;2023-02-11T17:27:18;24.80;68.60
47618;DHT22;33336;36.728;-4.414;2023-02-11T17:32:21;23.90;69.10
47618;DHT22;33336;36.728;-4.414;2023-02-11T17:37:24;22.90;71.80
47618;DHT22;33336;36.728;-4.414;2023-02-11T17:42:29;22.20;73.20
47618;DHT22;33336;36.728;-4.414;2023-02-11T17:47:32;21.30;74.60
47618;DHT22;33336;36.728;-4.414;2023-02-11T17:52:35;20.60;76.20
47618;DHT22;33336;36.728;-4.414;2023-02-11T17:57:40;20.00;77.60
47618;DHT22;33336;36.728;-4.414;2023-02-11T18:02:43;19.30;79.00
47618;DHT22;33336;36.728;-4.414;2023-02-11T18:07:46;19.00;79.30
47618;DHT22;33336;36.728;-4.414;2023-02-11T18:12:53;18.50;81.00
47618;DHT22;33336;36.728;-4.414;2023-02-11T18:17:56;18.20;81.20
47618;DHT22;33336;36.728;-4.414;2023-02-11T18:22:59;17.80;81.30
47618;DHT22;33336;36.728;-4.414;2023-02-11T18:28:05;17.60;82.50
47618;DHT22;33336;36.728;-4.414;2023-02-11T18:33:11;17.40;84.50
47618;DHT22;33336;36.728;-4.414;2023-02-11T18:38:15;16.90;82.60
47618;DHT22;33336;36.728;-4.414;2023-02-11T18:43:20;16.80;81.70
47618;DHT22;33336;36.728;-4.414;2023-02-11T18:48:24;16.60;84.20
47618;DHT22;33336;36.728;-4.414;2023-02-11T18:53:28;16.30;85.30
47618;DHT22;33336;36.728;-4.414;2023-02-11T18:58:33;16.20;85.00
47618;DHT22;33336;36.728;-4.414;2023-02-11T19:03:37;16.20;87.40
47618;DHT22;33336;36.728;-4.414;2023-02-11T19:08:40;16.30;85.70
47618;DHT22;33336;36.728;-4.414;2023-02-11T19:13:45;16.00;87.10
47618;DHT22;33336;36.728;-4.414;2023-02-11T19:18:49;15.90;85.50
47618;DHT22;33336;36.728;-4.414;2023-02-11T19:23:52;15.90;88.20
47618;DHT22;33336;36.728;-4.414;2023-02-11T19:28:57;15.80;89.30
47618;DHT22;33336;36.728;-4.414;2023-02-11T19:34:00;15.60;87.60
47618;DHT22;33336;36.728;-4.414;2023-02-11T19:39:04;15.60;87.60
47618;DHT22;33336;36.728;-4.414;2023-02-11T19:44:08;15.60;89.00
47618;DHT22;33336;36.728;-4.414;2023-02-11T19:49:14;15.50;89.00
47618;DHT22;33336;36.728;-4.414;2023-02-11T19:54:17;15.50;89.10
47618;DHT22;33336;36.728;-4.414;2023-02-11T19:59:23;15.40;89.00
47618;DHT22;33336;36.728;-4.414;2023-02-11T20:04:26;15.50;87.20
47618;DHT22;33336;36.728;-4.414;2023-02-11T20:09:32;15.40;88.80
47618;DHT22;33336;36.728;-4.414;2023-02-11T20:14:37;15.40;89.90
47618;DHT22;33336;36.728;-4.414;2023-02-11T20:19:40;15.30;88.80
47618;DHT22;33336;36.728;-4.414;2023-02-11T20:24:43;15.40;87.80
47618;DHT22;33336;36.728;-4.414;2023-02-11T20:29:47;15.20;90.00
47618;DHT22;33336;36.728;-4.414;2023-02-11T20:34:50;15.20;88.90
47618;DHT22;33336;36.728;-4.414;2023-02-11T20:39:53;15.30;89.30
47618;DHT22;33336;36.728;-4.414;2023-02-11T20:44:57;15.20;88.50
47618;DHT22;33336;36.728;-4.414;2023-02-11T20:50:01;15.00;88.80
47618;DHT22;33336;36.728;-4.414;2023-02-11T20:55:04;15.10;90.60
47618;DHT22;33336;36.728;-4.414;2023-02-11T21:00:10;15.00;90.60
47618;DHT22;33336;36.728;-4.414;2023-02-11T21:05:13;15.10;90.70
47618;DHT22;33336;36.728;-4.414;2023-02-11T21:10:16;15.10;90.80
47618;DHT22;33336;36.728;-4.414;2023-02-11T21:15:21;15.10;90.20
47618;DHT22;33336;36.728;-4.414;2023-02-11T21:20:25;15.00;90.00
47618;DHT22;33336;36.728;-4.414;2023-02-11T21:25:28;14.90;88.30
47618;DHT22;33336;36.728;-4.414;2023-02-11T21:30:33;14.90;86.40
47618;DHT22;33336;36.728;-4.414;2023-02-11T21:35:36;15.00;84.80
47618;DHT22;33336;36.728;-4.414;2023-02-11T21:40:40;14.90;84.00
47618;DHT22;33336;36.728;-4.414;2023-02-11T21:45:46;14.90;83.70
47618;DHT22;33336;36.728;-4.414;2023-02-11T21:50:51;14.70;83.70
47618;DHT22;33336;36.728;-4.414;2023-02-11T21:56:02;14.80;83.60
47618;DHT22;33336;36.728;-4.414;2023-02-11T22:01:16;14.80;83.50
47618;DHT22;33336;36.728;-4.414;2023-02-11T22:06:21;14.80;83.00
47618;DHT22;33336;36.728;-4.414;2023-02-11T22:11:26;14.80;82.90
47618;DHT22;33336;36.728;-4.414;2023-02-11T22:16:31;14.80;82.60
47618;DHT22;33336;36.728;-4.414;2023-02-11T22:21:34;14.70;82.70
47618;DHT22;33336;36.728;-4.414;2023-02-11T22:26:37;14.70;82.90
47618;DHT22;33336;36.728;-4.414;2023-02-11T22:31:42;14.70;83.00
47618;DHT22;33336;36.728;-4.414;2023-02-11T22:36:44;14.60;83.40
47618;DHT22;33336;36.728;-4.414;2023-02-11T22:41:47;14.60;83.80
47618;DHT22;33336;36.728;-4.414;2023-02-11T22:46:52;14.60;84.00
47618;DHT22;33336;36.728;-4.414;2023-02-11T22:51:56;14.50;84.20
47618;DHT22;33336;36.728;-4.414;2023-02-11T22:56:59;14.50;84.70
47618;DHT22;33336;36.728;-4.414;2023-02-11T23:02:03;14.40;84.90
47618;DHT22;33336;36.728;-4.414;2023-02-11T23:07:06;14.30;85.20
47618;DHT22;33336;36.728;-4.414;2023-02-11T23:12:10;14.10;86.00
47618;DHT22;33336;36.728;-4.414;2023-02-11T23:17:15;14.10;85.40
47618;DHT22;33336;36.728;-4.414;2023-02-11T23:22:20;14.00;85.80
47618;DHT22;33336;36.728;-4.414;2023-02-11T23:27:23;13.90;85.50
47618;DHT22;33336;36.728;-4.414;2023-02-11T23:32:27;13.90;85.90
47618;DHT22;33336;36.728;-4.414;2023-02-11T23:37:30;13.80;86.60
47618;DHT22;33336;36.728;-4.414;2023-02-11T23:42:33;13.80;86.60
47618;DHT22;33336;36.728;-4.414;2023-02-11T23:47:37;13.60;87.60
47618;DHT22;33336;36.728;-4.414;2023-02-11T23:52:42;13.70;87.20
47618;DHT22;33336;36.728;-4.414;2023-02-11T23:57:45;13.70;87.70
